Terminal Aerodrome Forecast
Issued by NWS

Home | Current Version | Previous Version | Text Only | Print | Product List | Glossary On
Versions: 1 2 3 4 5 6 7 8 9 10 11 12 13 14 15 16 17 18 19 20 21 22 23 24 25 26 27 28 29 30
000
FTAK31 PAFA 302320
TAFAOT
TAF
PAOT 302320Z 3100/3124 28008KT P6SM SCT150 OVC200
     FM310700 25010KT P6SM VCSH BKN100
     FM311800 17005KT P6SM -RA OVC015
     FM312200 19005KT 5SM -RA BR BKN007 OVC015=

USA.gov is the U.S. government's official web portal to all federal, state and local government web resources and services.